createdAt,value
2017-04-14T00:00:12.667Z,9.04
2017-04-14T00:00:53.200Z,8.92
2017-04-14T00:01:33.728Z,8.91
2017-04-14T00:02:14.269Z,9.02
2017-04-14T00:02:54.813Z,8.91
2017-04-14T00:03:35.359Z,9.01
2017-04-14T00:04:15.896Z,9.02
2017-04-14T00:04:56.431Z,8.92
2017-04-14T00:05:36.970Z,8.94
2017-04-14T00:06:17.489Z,8.92
2017-04-14T00:06:58.011Z,8.86
2017-04-14T00:07:38.550Z,8.94
2017-04-14T00:08:19.060Z,8.89
2017-04-14T00:08:59.585Z,8.89
2017-04-14T00:09:40.126Z,8.95
2017-04-14T00:10:20.650Z,8.98
2017-04-14T00:11:01.171Z,8.92
2017-04-14T00:11:41.697Z,9.02
2017-04-14T00:12:22.214Z,8.89
2017-04-14T00:13:02.734Z,8.94
2017-04-14T00:13:43.261Z,8.92
2017-04-14T00:14:23.804Z,8.92
2017-04-14T00:15:04.340Z,8.99
2017-04-14T00:15:44.859Z,8.95
2017-04-14T00:16:25.453Z,8.98
2017-04-14T00:17:05.972Z,8.91
2017-04-14T00:17:46.506Z,8.92
2017-04-14T00:18:27.033Z,8.99
2017-04-14T00:19:07.570Z,8.89
2017-04-14T00:19:48.103Z,8.98
2017-04-14T00:20:28.634Z,8.89
2017-04-14T00:21:09.176Z,8.89
2017-04-14T00:21:49.717Z,8.95
2017-04-14T00:22:30.235Z,8.91
2017-04-14T00:23:10.773Z,8.95
2017-04-14T00:23:51.292Z,8.89
2017-04-14T00:24:31.818Z,8.94
2017-04-14T00:25:12.347Z,8.89
2017-04-14T00:25:52.867Z,8.92
2017-04-14T00:26:33.390Z,8.86
2017-04-14T00:27:13.919Z,8.84
2017-04-14T00:27:54.445Z,8.76
2017-04-14T00:28:34.975Z,8.86
2017-04-14T00:29:17.027Z,8.81
2017-04-14T00:29:57.570Z,8.84
2017-04-14T00:30:38.073Z,8.76
2017-04-14T00:31:18.595Z,8.73
2017-04-14T00:31:59.112Z,8.74
2017-04-14T00:32:39.640Z,8.74
2017-04-14T00:33:20.183Z,8.66
2017-04-14T00:34:00.715Z,8.76
2017-04-14T00:34:41.251Z,8.74
2017-04-14T00:35:21.777Z,8.65
2017-04-14T00:36:02.304Z,8.7
2017-04-14T00:36:42.835Z,8.71
2017-04-14T00:37:23.367Z,8.65
2017-04-14T00:38:03.881Z,8.62
2017-04-14T00:38:44.415Z,8.56
2017-04-14T00:39:24.961Z,8.58
2017-04-14T00:40:05.494Z,8.52
2017-04-14T00:40:46.017Z,8.48
2017-04-14T00:41:26.554Z,8.52
2017-04-14T00:42:07.077Z,8.55
2017-04-14T00:42:47.611Z,8.5
2017-04-14T00:43:28.143Z,8.44
2017-04-14T00:44:08.663Z,8.37
2017-04-14T00:44:49.196Z,8.28
2017-04-14T00:45:29.739Z,8.37
2017-04-14T00:46:10.266Z,8.34
2017-04-14T00:46:50.784Z,8.23
2017-04-14T00:47:31.303Z,8.2
2017-04-14T00:48:11.823Z,8.19
2017-04-14T00:48:52.366Z,8.12
2017-04-14T00:49:32.936Z,8.18
2017-04-14T00:50:13.465Z,8.1
2017-04-14T00:50:54.010Z,8.04
2017-04-14T00:51:34.534Z,8.01
2017-04-14T00:52:15.060Z,7.92
2017-04-14T00:52:55.593Z,8.02
2017-04-14T00:53:36.140Z,7.9
2017-04-14T00:54:16.674Z,7.89
2017-04-14T00:54:57.210Z,7.89
2017-04-14T00:55:37.749Z,7.93
2017-04-14T00:56:18.285Z,7.9
2017-04-14T00:56:58.813Z,7.98
2017-04-14T00:57:39.349Z,7.86
2017-04-14T00:58:19.850Z,7.89
2017-04-14T00:59:00.369Z,7.89
2017-04-14T00:59:40.905Z,7.82
2017-04-14T01:00:21.415Z,7.86
2017-04-14T01:01:01.941Z,7.82
2017-04-14T01:01:42.478Z,7.75
2017-04-14T01:02:23.012Z,7.77
2017-04-14T01:03:03.543Z,7.71
2017-04-14T01:03:44.083Z,7.72
2017-04-14T01:04:24.661Z,7.68
2017-04-14T01:05:05.148Z,7.71
2017-04-14T01:05:45.666Z,7.69
2017-04-14T01:06:26.204Z,7.67
2017-04-14T01:07:06.746Z,7.69
2017-04-14T01:07:47.279Z,7.61
2017-04-14T01:08:27.812Z,7.61
2017-04-14T01:09:08.342Z,7.5
2017-04-14T01:09:48.868Z,7.48
2017-04-14T01:10:29.410Z,7.57
2017-04-14T01:11:09.949Z,7.53
2017-04-14T01:11:50.488Z,7.5
2017-04-14T01:12:31.007Z,7.46
2017-04-14T01:13:11.536Z,7.46
2017-04-14T01:13:52.066Z,7.4
2017-04-14T01:14:32.602Z,7.45
2017-04-14T01:15:13.142Z,7.31
2017-04-14T01:15:53.661Z,7.32
2017-04-14T01:16:34.176Z,7.28
2017-04-14T01:17:14.748Z,7.34
2017-04-14T01:17:55.285Z,7.32
2017-04-14T01:18:35.807Z,7.2
2017-04-14T01:19:16.354Z,7.21
2017-04-14T01:19:56.873Z,7.28
2017-04-14T01:20:37.383Z,7.17
2017-04-14T01:21:17.909Z,7.28
2017-04-14T01:21:58.437Z,7.2
2017-04-14T01:22:38.964Z,7.17
2017-04-14T01:23:19.491Z,7.27
2017-04-14T01:24:00.018Z,7.3
2017-04-14T01:24:40.554Z,7.16
2017-04-14T01:25:21.065Z,7.17
2017-04-14T01:26:01.581Z,7.17
2017-04-14T01:26:42.117Z,7.13
2017-04-14T01:27:22.662Z,7.2
2017-04-14T01:28:03.210Z,7.2
2017-04-14T01:28:43.737Z,7.2
2017-04-14T01:29:24.258Z,7.16
2017-04-14T01:30:04.793Z,7.16
2017-04-14T01:30:45.325Z,7.12
2017-04-14T01:31:25.857Z,7.12
2017-04-14T01:32:06.383Z,7.16
2017-04-14T01:32:46.911Z,7.06
2017-04-14T01:33:27.430Z,7.06
2017-04-14T01:34:07.961Z,7.03
2017-04-14T01:34:48.484Z,7.06
2017-04-14T01:35:29.008Z,7.06
2017-04-14T01:36:09.556Z,7.07
2017-04-14T01:36:50.116Z,7.03
2017-04-14T01:37:30.649Z,6.97
2017-04-14T01:38:11.177Z,7.02
2017-04-14T01:38:51.715Z,7.05
2017-04-14T01:39:32.249Z,6.95
2017-04-14T01:40:12.773Z,7.03
2017-04-14T01:40:53.299Z,6.99
2017-04-14T01:41:33.837Z,6.95
2017-04-14T01:42:14.379Z,6.94
2017-04-14T01:42:54.906Z,6.92
2017-04-14T01:43:35.434Z,6.98
2017-04-14T01:44:15.951Z,6.95
2017-04-14T01:44:56.481Z,6.88
2017-04-14T01:45:37.062Z,6.81
2017-04-14T01:46:17.618Z,6.89
2017-04-14T01:46:58.136Z,6.84
2017-04-14T01:47:38.677Z,6.77
2017-04-14T01:48:19.199Z,6.77
2017-04-14T01:48:59.722Z,6.7
2017-04-14T01:49:40.244Z,6.79
2017-04-14T01:50:20.779Z,6.77
2017-04-14T01:51:01.307Z,6.73
2017-04-14T01:51:41.857Z,6.77
2017-04-14T01:52:22.385Z,6.74
2017-04-14T01:53:02.913Z,6.73
2017-04-14T01:53:43.448Z,6.79
2017-04-14T01:54:23.982Z,6.71
2017-04-14T01:55:04.494Z,6.74
2017-04-14T01:55:45.037Z,6.76
2017-04-14T01:56:25.558Z,6.84
2017-04-14T01:57:06.082Z,6.76
2017-04-14T01:57:46.612Z,6.71
2017-04-14T01:58:27.142Z,6.76
2017-04-14T01:59:07.666Z,6.73
2017-04-14T01:59:48.201Z,6.77
2017-04-14T02:00:28.734Z,6.76
2017-04-14T02:01:09.302Z,6.71
2017-04-14T02:01:49.825Z,6.76
2017-04-14T02:02:30.362Z,6.73
2017-04-14T02:03:10.903Z,6.7
2017-04-14T02:03:51.430Z,6.76
2017-04-14T02:04:32.006Z,6.8
2017-04-14T02:05:12.536Z,6.71
2017-04-14T02:05:53.068Z,6.79
2017-04-14T02:06:33.582Z,6.73
2017-04-14T02:07:14.091Z,6.71
2017-04-14T02:07:54.627Z,6.77
2017-04-14T02:08:35.151Z,6.79
2017-04-14T02:09:15.679Z,6.73
2017-04-14T02:09:56.236Z,6.73
2017-04-14T02:10:36.775Z,6.69
2017-04-14T02:11:17.316Z,6.71
2017-04-14T02:11:57.838Z,6.74
2017-04-14T02:12:38.369Z,6.62
2017-04-14T02:13:18.998Z,6.7
2017-04-14T02:13:59.538Z,6.59
2017-04-14T02:14:40.072Z,6.66
2017-04-14T02:15:20.603Z,6.67
2017-04-14T02:16:01.120Z,6.66
2017-04-14T02:16:41.654Z,6.56
2017-04-14T02:17:22.186Z,6.64
2017-04-14T02:18:02.697Z,6.61
2017-04-14T02:18:43.232Z,6.62
2017-04-14T02:19:23.737Z,6.56
2017-04-14T02:20:04.269Z,6.59
2017-04-14T02:20:44.799Z,6.52
2017-04-14T02:21:25.328Z,6.58
2017-04-14T02:22:05.873Z,6.51
2017-04-14T02:22:46.394Z,6.48
2017-04-14T02:23:26.925Z,6.4
2017-04-14T02:24:07.464Z,6.4
2017-04-14T02:24:47.990Z,6.37
2017-04-14T02:25:28.503Z,6.36
2017-04-14T02:26:09.032Z,6.36
2017-04-14T02:26:49.553Z,6.36
2017-04-14T02:27:30.074Z,6.33
2017-04-14T02:28:10.613Z,6.28
2017-04-14T02:28:51.141Z,6.28
2017-04-14T02:29:31.662Z,6.22
2017-04-14T02:30:12.196Z,6.28
2017-04-14T02:30:52.727Z,6.28
2017-04-14T02:31:33.249Z,6.31
2017-04-14T02:32:13.788Z,6.25
2017-04-14T02:32:54.280Z,6.25
2017-04-14T02:33:34.802Z,6.28
2017-04-14T02:34:15.333Z,6.17
2017-04-14T02:34:55.873Z,6.21
2017-04-14T02:35:36.399Z,6.3
2017-04-14T02:36:16.927Z,6.25
2017-04-14T02:36:57.474Z,6.25
2017-04-14T02:37:37.990Z,6.19
2017-04-14T02:38:18.533Z,6.17
2017-04-14T02:38:59.054Z,6.18
2017-04-14T02:39:39.593Z,6.21
2017-04-14T02:40:20.124Z,6.17
2017-04-14T02:41:00.638Z,6.17
2017-04-14T02:41:41.169Z,6.11
2017-04-14T02:42:21.693Z,6.18
2017-04-14T02:43:02.218Z,6.11
2017-04-14T02:43:42.752Z,6.12
2017-04-14T02:44:23.297Z,6.11
2017-04-14T02:45:03.841Z,6.15
2017-04-14T02:45:44.384Z,6.06
2017-04-14T02:46:24.916Z,6.09
2017-04-14T02:47:05.439Z,6
2017-04-14T02:47:45.963Z,6.11
2017-04-14T02:48:26.492Z,6.06
2017-04-14T02:49:07.043Z,6.01
2017-04-14T02:49:47.582Z,6.01
2017-04-14T02:50:28.109Z,5.97
2017-04-14T02:51:08.659Z,6
2017-04-14T02:51:49.161Z,5.97
2017-04-14T02:52:29.700Z,6
2017-04-14T02:53:10.224Z,6
2017-04-14T02:53:50.753Z,5.93
2017-04-14T02:54:31.284Z,5.94
2017-04-14T02:55:11.814Z,5.97
2017-04-14T02:55:52.345Z,5.91
2017-04-14T02:56:32.877Z,5.94
2017-04-14T02:57:13.392Z,5.97
2017-04-14T02:57:53.937Z,5.93
2017-04-14T02:58:34.460Z,5.83
2017-04-14T02:59:14.980Z,5.89
2017-04-14T02:59:55.512Z,5.82
2017-04-14T03:00:36.024Z,5.82
2017-04-14T03:01:16.547Z,5.82
2017-04-14T03:01:57.067Z,5.75
2017-04-14T03:02:37.591Z,5.83
2017-04-14T03:03:18.142Z,5.79
2017-04-14T03:03:58.668Z,5.75
2017-04-14T03:04:39.217Z,5.76
2017-04-14T03:05:19.755Z,5.79
2017-04-14T03:06:00.294Z,5.71
2017-04-14T03:06:40.818Z,5.75
2017-04-14T03:07:21.361Z,5.71
2017-04-14T03:08:01.891Z,5.68
2017-04-14T03:08:42.414Z,5.75
2017-04-14T03:09:22.946Z,5.65
2017-04-14T03:10:03.465Z,5.76
2017-04-14T03:10:44.013Z,5.68
2017-04-14T03:11:24.514Z,5.64
2017-04-14T03:12:05.034Z,5.68
2017-04-14T03:12:45.554Z,5.72
2017-04-14T03:13:26.096Z,5.76
2017-04-14T03:14:06.650Z,5.68
2017-04-14T03:14:47.157Z,5.67
2017-04-14T03:15:27.693Z,5.67
2017-04-14T03:16:08.220Z,5.64
2017-04-14T03:16:48.752Z,5.72
2017-04-14T03:17:29.304Z,5.64
2017-04-14T03:18:09.824Z,5.65
2017-04-14T03:18:50.350Z,5.64
2017-04-14T03:19:30.874Z,5.65
2017-04-14T03:20:11.418Z,5.63
2017-04-14T03:20:51.948Z,5.72
2017-04-14T03:21:32.484Z,5.61
2017-04-14T03:22:13.011Z,5.64
2017-04-14T03:22:53.541Z,5.63
2017-04-14T03:23:34.082Z,5.63
2017-04-14T03:24:14.618Z,5.63
2017-04-14T03:24:55.151Z,5.71
2017-04-14T03:25:35.673Z,5.64
2017-04-14T03:26:16.188Z,5.64
2017-04-14T03:26:56.706Z,5.61
2017-04-14T03:27:37.239Z,5.6
2017-04-14T03:28:17.754Z,5.65
2017-04-14T03:28:58.296Z,5.63
2017-04-14T03:29:38.811Z,5.49
2017-04-14T03:30:19.325Z,5.48
2017-04-14T03:30:59.885Z,5.53
2017-04-14T03:31:40.470Z,5.45
2017-04-14T03:32:21.043Z,5.61
2017-04-14T03:33:01.572Z,5.53
2017-04-14T03:33:42.286Z,5.57
2017-04-14T03:34:22.845Z,5.53
2017-04-14T03:35:03.406Z,5.43
2017-04-14T03:35:43.944Z,5.53
2017-04-14T03:36:24.520Z,5.53
2017-04-14T03:37:05.073Z,5.53
2017-04-14T03:37:45.580Z,5.45
2017-04-14T03:38:26.148Z,5.46
2017-04-14T03:39:06.710Z,5.53
2017-04-14T03:39:47.283Z,5.49
2017-04-14T03:40:27.873Z,5.49
2017-04-14T03:41:08.372Z,5.45
2017-04-14T03:41:48.894Z,5.42
2017-04-14T03:42:29.451Z,5.43
2017-04-14T03:43:10.044Z,5.45
2017-04-14T03:43:50.605Z,5.35
2017-04-14T03:44:31.122Z,5.3
2017-04-14T03:45:11.656Z,5.31
2017-04-14T03:45:52.170Z,5.39
2017-04-14T03:46:32.728Z,5.31
2017-04-14T03:47:13.264Z,5.33
2017-04-14T03:47:53.883Z,5.36
2017-04-14T03:48:34.371Z,5.31
2017-04-14T03:49:14.947Z,5.35
2017-04-14T03:49:55.487Z,5.36
2017-04-14T03:50:36.058Z,5.31
2017-04-14T03:51:16.628Z,5.24
2017-04-14T03:51:57.230Z,5.25
2017-04-14T03:52:37.740Z,5.15
2017-04-14T03:53:18.290Z,5.2
2017-04-14T03:53:58.846Z,5.15
2017-04-14T03:54:39.431Z,5.12
2017-04-14T03:55:20.026Z,5.12
2017-04-14T03:56:00.565Z,5.18
2017-04-14T03:56:41.098Z,5.13
2017-04-14T03:57:21.630Z,5.21
2017-04-14T03:58:02.192Z,5.17
2017-04-14T03:58:42.728Z,5.13
2017-04-14T04:00:45.604Z,5.04
2017-04-14T04:01:29.293Z,4.97
2017-04-14T04:02:11.259Z,4.97
2017-04-14T04:02:54.637Z,5.04
2017-04-14T04:03:35.165Z,4.97
2017-04-14T04:04:15.698Z,5
2017-04-14T04:04:56.219Z,5
2017-04-14T04:05:36.752Z,4.99
2017-04-14T04:06:17.268Z,4.94
2017-04-14T04:06:57.807Z,4.96
2017-04-14T04:07:38.337Z,4.92
2017-04-14T04:08:18.878Z,4.88
2017-04-14T04:08:59.389Z,4.89
2017-04-14T04:09:39.917Z,4.91
2017-04-14T04:10:20.441Z,4.91
2017-04-14T04:11:00.946Z,4.92
2017-04-14T04:11:41.469Z,4.96
2017-04-14T04:12:22.001Z,4.86
2017-04-14T04:13:02.528Z,4.88
2017-04-14T04:13:43.044Z,4.85
2017-04-14T04:14:23.562Z,4.88
2017-04-14T04:15:04.081Z,4.85
2017-04-14T04:15:44.599Z,4.85
2017-04-14T04:16:25.126Z,4.78
2017-04-14T04:17:05.635Z,4.82
2017-04-14T04:17:46.171Z,4.82
2017-04-14T04:18:26.718Z,4.88
2017-04-14T04:19:07.196Z,4.92
2017-04-14T04:19:47.709Z,4.88
2017-04-14T04:20:28.234Z,4.8
2017-04-14T04:21:08.775Z,4.88
2017-04-14T04:21:49.332Z,4.92
2017-04-14T04:22:29.830Z,4.88
2017-04-14T04:23:10.353Z,4.85
2017-04-14T04:23:50.880Z,4.84
2017-04-14T04:24:31.427Z,4.88
2017-04-14T04:25:11.952Z,4.85
2017-04-14T04:25:52.480Z,4.84
2017-04-14T04:26:33.012Z,4.84
2017-04-14T04:27:13.547Z,4.85
2017-04-14T04:27:54.065Z,4.85
2017-04-14T04:28:34.604Z,4.84
2017-04-14T04:29:15.136Z,4.84
2017-04-14T04:29:55.681Z,4.84
2017-04-14T04:30:36.195Z,4.86
2017-04-14T04:31:16.730Z,4.85
2017-04-14T04:31:57.266Z,4.88
2017-04-14T04:32:37.789Z,4.82
2017-04-14T04:33:18.309Z,4.8
2017-04-14T04:33:58.821Z,4.8
2017-04-14T04:34:39.355Z,4.8
2017-04-14T04:35:19.900Z,4.85
2017-04-14T04:36:00.435Z,4.77
2017-04-14T04:36:40.967Z,4.78
2017-04-14T04:37:21.530Z,4.73
2017-04-14T04:38:02.019Z,4.77
2017-04-14T04:38:42.549Z,4.82
2017-04-14T04:39:23.086Z,4.75
2017-04-14T04:40:03.600Z,4.75
2017-04-14T04:40:44.136Z,4.84
2017-04-14T04:41:24.649Z,4.82
2017-04-14T04:42:05.190Z,4.84
2017-04-14T04:42:45.725Z,4.73
2017-04-14T04:43:26.236Z,4.8
2017-04-14T04:44:06.752Z,4.72
2017-04-14T04:44:47.278Z,4.72
2017-04-14T04:45:27.809Z,4.78
2017-04-14T04:46:08.311Z,4.82
2017-04-14T04:46:48.853Z,4.8
2017-04-14T04:47:29.365Z,4.7
2017-04-14T04:48:09.894Z,4.72
2017-04-14T04:48:50.430Z,4.77
2017-04-14T04:49:30.959Z,4.75
2017-04-14T04:50:11.501Z,4.75
2017-04-14T04:50:52.035Z,4.72
2017-04-14T04:51:32.565Z,4.78
2017-04-14T04:52:13.089Z,4.72
2017-04-14T04:52:53.628Z,4.66
2017-04-14T04:53:34.165Z,4.72
2017-04-14T04:54:14.795Z,4.75
2017-04-14T04:54:55.758Z,4.77
2017-04-14T04:55:36.502Z,4.73
2017-04-14T04:56:17.020Z,4.73
2017-04-14T04:56:57.538Z,4.66
2017-04-14T04:57:38.079Z,4.65
2017-04-14T04:58:18.677Z,4.72
2017-04-14T04:58:59.335Z,4.69
2017-04-14T04:59:39.879Z,4.69
2017-04-14T05:00:20.377Z,4.69
2017-04-14T05:01:00.918Z,4.69
2017-04-14T05:01:41.434Z,4.72
2017-04-14T05:02:21.966Z,4.7
2017-04-14T05:03:02.497Z,4.69
2017-04-14T05:03:43.041Z,4.7
2017-04-14T05:04:23.605Z,4.7
2017-04-14T05:05:04.122Z,4.69
2017-04-14T05:05:44.642Z,4.65
2017-04-14T05:06:25.164Z,4.69
2017-04-14T05:07:05.691Z,4.69
2017-04-14T05:07:46.234Z,4.66
2017-04-14T05:08:26.764Z,4.69
2017-04-14T05:09:07.302Z,4.66
2017-04-14T05:09:47.829Z,4.67
2017-04-14T05:10:28.363Z,4.69
2017-04-14T05:11:08.879Z,4.7
2017-04-14T05:11:49.407Z,4.77
2017-04-14T05:12:29.929Z,4.8
2017-04-14T05:13:10.470Z,4.8
2017-04-14T05:13:50.998Z,4.78
2017-04-14T05:14:31.524Z,4.8
2017-04-14T05:15:12.036Z,4.72
2017-04-14T05:15:52.587Z,4.75
2017-04-14T05:16:33.067Z,4.78
2017-04-14T05:17:13.609Z,4.82
2017-04-14T05:17:54.125Z,4.75
2017-04-14T05:18:34.614Z,4.8
2017-04-14T05:19:15.139Z,4.8
2017-04-14T05:19:55.671Z,4.75
2017-04-14T05:20:36.195Z,4.72
2017-04-14T05:21:16.773Z,4.78
2017-04-14T05:21:57.249Z,4.78
2017-04-14T05:22:37.768Z,4.82
2017-04-14T05:23:18.306Z,4.82
2017-04-14T05:23:58.821Z,4.78
2017-04-14T05:24:39.337Z,4.8
2017-04-14T05:25:19.854Z,4.86
2017-04-14T05:26:00.393Z,4.85
2017-04-14T05:26:40.927Z,4.86
2017-04-14T05:27:21.486Z,4.89
2017-04-14T05:28:02.019Z,4.89
2017-04-14T05:28:42.545Z,4.88
2017-04-14T05:29:23.084Z,4.89
2017-04-14T05:30:03.591Z,4.88
2017-04-14T05:30:44.113Z,4.91
2017-04-14T05:31:24.620Z,4.92
2017-04-14T05:32:05.168Z,4.96
2017-04-14T05:32:45.680Z,4.91
2017-04-14T05:33:26.201Z,4.91
2017-04-14T05:34:06.723Z,4.94
2017-04-14T05:34:47.242Z,4.96
2017-04-14T05:35:27.793Z,4.91
2017-04-14T05:36:08.324Z,4.99
2017-04-14T05:36:48.855Z,4.89
2017-04-14T05:37:29.387Z,4.92
2017-04-14T05:38:09.905Z,4.89
2017-04-14T05:38:50.463Z,4.96
2017-04-14T05:39:31.027Z,4.94
2017-04-14T05:40:11.534Z,4.94
2017-04-14T05:40:52.072Z,4.99
2017-04-14T05:41:32.592Z,4.97
2017-04-14T05:42:13.126Z,5.03
2017-04-14T05:42:53.653Z,4.97
2017-04-14T05:43:34.186Z,4.97
2017-04-14T05:44:14.709Z,5.02
2017-04-14T05:44:55.316Z,4.99
2017-04-14T05:45:35.847Z,4.96
2017-04-14T05:46:16.371Z,4.97
2017-04-14T05:46:56.881Z,5.03
2017-04-14T05:47:37.413Z,4.97
2017-04-14T05:48:17.949Z,4.97
2017-04-14T05:48:58.474Z,4.97
2017-04-14T05:49:39.022Z,4.96
2017-04-14T05:50:19.535Z,4.97
2017-04-14T05:51:00.082Z,5.09
2017-04-14T05:51:41.400Z,5.07
2017-04-14T05:52:21.934Z,5.04
2017-04-14T05:53:02.505Z,5.12
2017-04-14T05:53:43.282Z,5.09
2017-04-14T05:54:24.010Z,5.1
2017-04-14T05:55:04.592Z,5.13
2017-04-14T05:55:45.112Z,5.1
2017-04-14T05:56:25.619Z,5.12
2017-04-14T05:57:06.153Z,5.09
2017-04-14T05:57:46.751Z,5.1
2017-04-14T05:58:27.330Z,5.03
2017-04-14T05:59:07.859Z,5.1
2017-04-14T05:59:48.394Z,5.09
2017-04-14T06:00:28.929Z,5.18
2017-04-14T06:01:09.471Z,5.04
2017-04-14T06:01:49.981Z,5.07
2017-04-14T06:02:30.537Z,5.17
2017-04-14T06:03:11.078Z,5.12
2017-04-14T06:03:51.620Z,5.17
2017-04-14T06:04:32.127Z,5.17
2017-04-14T06:05:12.652Z,5.13
2017-04-14T06:05:53.275Z,5.18
2017-04-14T06:06:33.784Z,5.18
2017-04-14T06:07:14.303Z,5.2
2017-04-14T06:07:54.830Z,5.2
2017-04-14T06:08:35.343Z,5.24
2017-04-14T06:09:15.883Z,5.24
2017-04-14T06:09:56.397Z,5.27
2017-04-14T06:10:36.982Z,5.33
2017-04-14T06:11:17.496Z,5.38
2017-04-14T06:11:58.017Z,5.33
2017-04-14T06:12:38.553Z,5.35
2017-04-14T06:13:19.130Z,5.35
2017-04-14T06:13:59.647Z,5.4
2017-04-14T06:14:40.182Z,5.42
2017-04-14T06:15:20.715Z,5.45
2017-04-14T06:16:01.244Z,5.51
2017-04-14T06:16:41.766Z,5.53
2017-04-14T06:17:22.306Z,5.53
2017-04-14T06:18:02.826Z,5.48
2017-04-14T06:18:43.351Z,5.56
2017-04-14T06:19:23.952Z,5.57
2017-04-14T06:20:04.506Z,5.54
2017-04-14T06:20:45.001Z,5.57
2017-04-14T06:21:25.529Z,5.68
2017-04-14T06:22:06.140Z,5.61
2017-04-14T06:22:46.665Z,5.67
2017-04-14T06:23:27.253Z,5.65
2017-04-14T06:24:07.759Z,5.64
2017-04-14T06:24:48.271Z,5.75
2017-04-14T06:25:28.795Z,5.71
2017-04-14T06:26:09.324Z,5.72
2017-04-14T06:26:49.882Z,5.79
2017-04-14T06:27:30.435Z,5.78
2017-04-14T06:28:11.015Z,5.85
2017-04-14T06:28:51.584Z,5.85
2017-04-14T06:29:32.121Z,5.85
2017-04-14T06:30:12.660Z,5.91
2017-04-14T06:30:53.200Z,5.97
2017-04-14T06:31:33.742Z,5.94
2017-04-14T06:32:14.286Z,5.97
2017-04-14T06:32:54.823Z,6
2017-04-14T06:33:35.463Z,6.01
2017-04-14T06:34:16.013Z,6.04
2017-04-14T06:34:56.609Z,6.06
2017-04-14T06:35:37.260Z,6
2017-04-14T06:36:17.813Z,6.04
2017-04-14T06:36:58.399Z,6.04
2017-04-14T06:37:39.110Z,6.12
2017-04-14T06:38:19.652Z,6.14
2017-04-14T06:39:00.169Z,6.14
2017-04-14T06:39:40.796Z,6.19
2017-04-14T06:40:21.389Z,6.19
2017-04-14T06:41:01.937Z,6.19
2017-04-14T06:41:42.729Z,6.28
2017-04-14T06:42:23.389Z,6.28
2017-04-14T06:43:03.980Z,6.28
2017-04-14T06:43:44.703Z,6.31
2017-04-14T06:44:25.225Z,6.3
2017-04-14T06:45:05.778Z,6.4
2017-04-14T06:45:46.305Z,6.38
2017-04-14T06:46:26.891Z,6.43
2017-04-14T06:47:07.410Z,6.44
2017-04-14T06:47:47.939Z,6.49
2017-04-14T06:48:28.466Z,6.56
2017-04-14T06:49:09.064Z,6.58
2017-04-14T06:49:49.818Z,6.61
2017-04-14T06:50:30.561Z,6.71
2017-04-14T06:51:11.113Z,6.73
2017-04-14T06:51:51.636Z,6.73
2017-04-14T06:52:32.205Z,6.7
2017-04-14T06:53:12.919Z,6.87
2017-04-14T06:53:53.656Z,6.92
2017-04-14T06:54:34.271Z,6.85
2017-04-14T06:55:14.951Z,6.97
2017-04-14T06:55:55.550Z,6.92
2017-04-14T06:56:36.227Z,6.94
2017-04-14T06:57:16.768Z,7.07
2017-04-14T06:57:57.305Z,7.12
2017-04-14T06:58:37.885Z,7.16
2017-04-14T06:59:18.441Z,7.09
2017-04-14T06:59:58.985Z,7.16
2017-04-14T07:00:39.512Z,7.2
2017-04-14T07:01:20.187Z,7.2
2017-04-14T07:02:00.766Z,7.25
2017-04-14T07:02:41.358Z,7.16
2017-04-14T07:03:21.989Z,7.21
2017-04-14T07:04:02.727Z,7.27
2017-04-14T07:04:43.295Z,7.31
2017-04-14T07:05:23.819Z,7.21
2017-04-14T07:06:04.350Z,7.35
2017-04-14T07:06:44.907Z,7.34
2017-04-14T07:07:25.489Z,7.42
2017-04-14T07:08:06.130Z,7.37
2017-04-14T07:08:46.769Z,7.42
2017-04-14T07:09:27.417Z,7.45
2017-04-14T07:10:07.916Z,7.48
2017-04-14T07:10:48.552Z,7.53
2017-04-14T07:11:29.166Z,7.48
2017-04-14T07:13:48.772Z,7.64
2017-04-14T07:14:29.315Z,7.71
2017-04-14T07:15:09.823Z,7.71
2017-04-14T07:15:50.414Z,7.74
2017-04-14T07:16:30.931Z,7.89
2017-04-14T07:17:11.520Z,7.75
2017-04-14T07:17:52.126Z,7.79
2017-04-14T07:18:32.683Z,7.95
2017-04-14T07:19:13.266Z,7.89
2017-04-14T07:19:53.799Z,7.92
2017-04-14T07:20:34.356Z,8.05
2017-04-14T07:21:14.964Z,8.01
2017-04-14T07:21:55.535Z,7.98
2017-04-14T07:22:36.092Z,8
2017-04-14T07:23:16.647Z,8.08
2017-04-14T07:23:57.220Z,8.11
2017-04-14T07:24:37.845Z,8.12
2017-04-14T07:25:18.499Z,8.12
2017-04-14T07:25:59.037Z,8.19
2017-04-14T07:26:39.573Z,8.2
2017-04-14T07:27:20.983Z,8.23
2017-04-14T07:28:01.580Z,8.25
2017-04-14T07:28:42.196Z,8.3
2017-04-14T07:29:22.797Z,8.33
2017-04-14T07:30:03.347Z,8.29
2017-04-14T07:30:43.978Z,8.4
2017-04-14T07:31:24.549Z,8.44
2017-04-14T07:32:05.157Z,8.52
2017-04-14T07:32:45.717Z,8.55
2017-04-14T07:33:26.247Z,8.52
2017-04-14T07:34:06.763Z,8.66
2017-04-14T07:34:47.444Z,8.62
2017-04-14T07:35:28.190Z,8.58
2017-04-14T07:36:08.761Z,8.65
2017-04-14T07:36:49.307Z,8.77
2017-04-14T07:37:29.869Z,8.79
2017-04-14T07:38:10.461Z,8.8
2017-04-14T07:38:51.092Z,8.83
2017-04-14T07:39:31.656Z,8.83
2017-04-14T07:40:12.371Z,8.94
2017-04-14T07:40:52.931Z,8.87
2017-04-14T07:41:33.513Z,8.95
2017-04-14T07:42:14.070Z,9.02
2017-04-14T07:42:54.645Z,9.02
2017-04-14T07:43:35.332Z,9.11
2017-04-14T07:44:15.894Z,9.17
2017-04-14T07:44:56.506Z,9.18
2017-04-14T07:45:37.121Z,9.18
2017-04-14T07:46:17.664Z,9.26
2017-04-14T07:46:58.208Z,9.28
2017-04-14T07:47:38.779Z,9.31
2017-04-14T07:48:19.353Z,9.47
2017-04-14T07:48:59.898Z,9.56
2017-04-14T07:49:40.478Z,9.68
2017-04-14T07:50:21.016Z,9.78
2017-04-14T07:51:01.564Z,9.78
2017-04-14T07:51:42.394Z,9.96
2017-04-14T07:52:23.127Z,10.05
2017-04-14T07:53:04.172Z,10.07
2017-04-14T07:53:46.777Z,10.25
2017-04-14T07:54:27.992Z,10.34
2017-04-14T07:55:08.624Z,10.33
2017-04-14T07:55:49.407Z,10.38
2017-04-14T07:56:30.093Z,10.44
2017-04-14T07:57:10.870Z,10.36
2017-04-14T07:57:51.675Z,10.33
2017-04-14T07:58:32.412Z,10.29
2017-04-14T07:59:13.096Z,10.27
2017-04-14T07:59:53.877Z,10.42
2017-04-14T08:00:34.730Z,10.41
2017-04-14T08:01:15.412Z,10.51
2017-04-14T08:01:56.011Z,10.59
2017-04-14T08:02:36.829Z,10.63
2017-04-14T08:03:17.466Z,10.74
2017-04-14T08:03:58.428Z,10.84
2017-04-14T08:04:39.156Z,10.85
2017-04-14T08:05:19.802Z,10.92
2017-04-14T08:06:00.361Z,11.07
2017-04-14T08:06:40.967Z,11.17
2017-04-14T08:07:21.639Z,11.21
2017-04-14T08:08:02.381Z,11.37
2017-04-14T08:08:43.025Z,11.52
2017-04-14T08:09:23.627Z,11.69
2017-04-14T08:10:04.459Z,11.82
2017-04-14T08:10:45.049Z,11.83
2017-04-14T08:11:25.606Z,12.04
2017-04-14T08:12:06.106Z,11.99
2017-04-14T08:12:46.711Z,12.27
2017-04-14T08:13:27.267Z,12.37
2017-04-14T08:14:08.076Z,12.41
2017-04-14T08:14:48.664Z,12.53
2017-04-14T08:15:29.467Z,12.62
2017-04-14T08:16:10.040Z,12.67
2017-04-14T08:16:50.732Z,12.67
2017-04-14T08:17:31.526Z,12.7
2017-04-14T08:18:12.328Z,12.64
2017-04-14T08:18:53.041Z,12.5
2017-04-14T08:19:33.677Z,12.37
2017-04-14T08:20:14.425Z,12.29
2017-04-14T08:20:55.153Z,12.32
2017-04-14T08:21:35.859Z,12.37
2017-04-14T08:22:16.671Z,12.52
2017-04-14T08:22:57.351Z,12.6
2017-04-14T08:23:38.110Z,12.83
2017-04-14T08:24:18.746Z,12.96
2017-04-14T08:24:59.402Z,13.15
2017-04-14T08:25:40.049Z,13.26
2017-04-14T08:26:20.692Z,13.51
2017-04-14T08:27:01.351Z,13.7
2017-04-14T08:27:41.940Z,13.81
2017-04-14T08:28:22.665Z,13.82
2017-04-14T08:29:03.284Z,13.87
2017-04-14T08:29:44.030Z,13.64
2017-04-14T08:30:24.723Z,13.63
2017-04-14T08:31:05.550Z,13.63
2017-04-14T08:31:46.411Z,13.54
2017-04-14T08:32:27.589Z,13.59
2017-04-14T08:33:08.178Z,13.71
2017-04-14T08:33:50.320Z,13.84
2017-04-14T08:34:33.083Z,13.99
2017-04-14T08:35:15.904Z,14.03
2017-04-14T08:35:56.995Z,14.06
2017-04-14T08:36:37.665Z,14.14
2017-04-14T08:37:18.830Z,14.22
2017-04-14T08:37:59.535Z,14.24
2017-04-14T08:38:40.832Z,14.21
2017-04-14T08:39:21.337Z,14.24
2017-04-14T08:40:02.251Z,14.35
2017-04-14T08:40:43.326Z,14.55
2017-04-14T08:41:24.012Z,14.64
2017-04-14T08:42:04.571Z,14.78
2017-04-14T08:42:45.511Z,14.72
2017-04-14T08:43:26.142Z,14.52
2017-04-14T08:44:06.888Z,14.46
2017-04-14T08:44:47.503Z,14.4
2017-04-14T08:45:28.494Z,14.37
2017-04-14T08:46:09.081Z,14.29
2017-04-14T08:46:49.656Z,14.32
2017-04-14T08:47:30.525Z,14.21
2017-04-14T08:48:11.183Z,14.28
2017-04-14T08:48:51.874Z,14.36
2017-04-14T08:49:32.538Z,14.42
2017-04-14T08:50:13.473Z,14.47
2017-04-14T08:50:54.151Z,14.61
2017-04-14T08:51:34.811Z,14.7
2017-04-14T08:52:15.348Z,14.75
2017-04-14T08:52:55.901Z,14.91
2017-04-14T08:53:36.496Z,14.73
2017-04-14T08:54:17.299Z,14.6
2017-04-14T08:54:57.881Z,14.51
2017-04-14T08:55:38.635Z,14.36
2017-04-14T08:56:19.122Z,14.43
2017-04-14T08:56:59.812Z,14.65
2017-04-14T08:57:40.389Z,14.83
2017-04-14T08:58:21.115Z,15.1
2017-04-14T08:59:01.993Z,15.21
2017-04-14T08:59:42.572Z,15.29
2017-04-14T09:00:23.407Z,15.41
2017-04-14T09:01:04.278Z,15.64
2017-04-14T09:01:44.896Z,15.83
2017-04-14T09:02:25.450Z,16
2017-04-14T09:03:06.201Z,16.08